Time;durP1;ratioP1;P1;durP2;ratioP2;P2;SDS_P1;SDS_P2;PMS_P1;PMS_P2;Temp;Humidity;BMP_temperature;BMP_pressure;BME280_temperature;BME280_humidity;BME280_pressure;Samples;Min_cycle;Max_cycle;Signal;HPM_P1;HPM_P2
2021/04/05 00:03:48;;;;;;;;;;;6.30;76.50;;;3.54;53.55;95523.28;10440478;28;1943;-86
2021/04/05 00:08:51;;;;;;;;;;;5.60;76.30;;;3.42;53.95;95514.53;10413972;28;2043;-85
2021/04/05 00:13:53;;;;;;;;;;;4.60;75.90;;;3.53;53.48;95500.41;10417671;28;2003;-85
2021/04/05 00:18:58;;;;;;;;;;;4.60;75.80;;;3.65;53.14;95482.56;10422185;28;1244;-85
2021/04/05 00:24:00;;;;;;;;;;;4.90;75.80;;;3.64;53.13;95485.47;10436494;28;1920;-84
2021/04/05 00:29:05;;;;;;;;;;;5.20;75.70;;;3.63;52.93;95483.88;10440629;28;1954;-85
2021/04/05 00:34:07;;;;;;;;;;;4.70;75.50;;;3.63;53.13;95481.22;10427875;28;1797;-85
2021/04/05 00:39:09;;;;;;;;;;;4.70;75.60;;;3.63;53.43;95458.09;10418436;28;1915;-84
2021/04/05 00:44:11;;;;;;;;;;;4.80;75.70;;;3.52;53.96;95450.97;10426424;28;2013;-83
2021/04/05 00:49:13;;;;;;;;;;;4.70;75.90;;;3.41;54.56;95443.84;10449086;28;1951;-86
2021/04/05 00:54:15;;;;;;;;;;;4.60;76.20;;;3.47;53.77;95445.53;10449057;28;2000;-86
2021/04/05 00:59:18;;;;;;;;;;;5.90;77.20;;;3.48;54.12;95433.88;10461522;28;1777;-85
2021/04/05 01:04:20;;;;;;;;;;;4.60;76.70;;;3.45;54.78;95413.09;10453045;28;2200;-86
2021/04/05 01:09:22;;;;;;;;;;;4.60;76.70;;;3.52;53.88;95413.75;10429528;28;2095;-85
2021/04/05 01:14:24;;;;;;;;;;;4.60;76.40;;;3.54;54.10;95406.34;10452562;28;2136;-85
2021/04/05 01:19:26;;;;;;;;;;;5.80;77.10;;;3.50;54.38;95411.34;10444417;28;1841;-86
2021/04/05 01:24:28;;;;;;;;;;;5.10;77.00;;;3.36;54.45;95411.84;10441932;28;1971;-86
2021/04/05 01:29:30;;;;;;;;;;;5.90;77.60;;;3.39;54.80;95408.72;10431699;28;2063;-86
2021/04/05 01:34:32;;;;;;;;;;;4.50;77.30;;;3.30;55.46;95395.00;10442651;28;2148;-87
2021/04/05 01:39:34;;;;;;;;;;;5.40;77.90;;;3.36;55.49;95387.94;10451648;28;2421;-85
2021/04/05 01:44:36;;;;;;;;;;;4.50;77.90;;;3.30;55.29;95380.91;10428725;28;2080;-83
2021/04/05 01:49:38;;;;;;;;;;;5.00;78.20;;;3.43;55.29;95354.06;10440023;28;2142;-84
2021/04/05 01:54:40;;;;;;;;;;;4.60;78.20;;;3.25;55.62;95371.03;10458252;28;2063;-85
2021/04/05 01:59:42;;;;;;;;;;;5.60;78.80;;;3.17;56.34;95363.41;10430300;28;2039;-86
2021/04/05 02:04:44;;;;;;;;;;;4.30;78.70;;;3.12;56.50;95361.47;10448755;28;2092;-85
2021/04/05 02:09:47;;;;;;;;;;;5.10;79.30;;;3.14;56.80;95338.13;10433806;28;2047;-85
2021/04/05 02:14:49;;;;;;;;;;;5.40;79.70;;;3.04;56.88;95342.44;10449027;28;2148;-86
2021/04/05 02:19:51;;;;;;;;;;;5.60;79.90;;;3.05;57.13;95339.53;10428256;28;2204;-86
2021/04/05 02:24:53;;;;;;;;;;;6.10;80.50;;;2.94;57.56;95333.25;10426989;28;2076;-84
2021/04/05 02:29:55;;;;;;;;;;;4.80;80.10;;;2.91;57.13;95312.47;10410561;28;2164;-85
2021/04/05 02:34:57;;;;;;;;;;;4.30;80.10;;;2.86;57.88;95308.91;10413905;28;1567;-86
2021/04/05 02:39:59;;;;;;;;;;;3.90;80.20;;;2.89;57.75;95311.09;10414216;28;2121;-85
2021/04/05 02:45:03;;;;;;;;;;;4.60;80.80;;;2.78;57.98;95312.75;10413684;28;2141;-84
2021/04/05 02:50:05;;;;;;;;;;;4.70;80.90;;;2.78;58.11;95319.91;10412758;28;2106;-85
2021/04/05 02:55:07;;;;;;;;;;;3.80;80.70;;;2.64;58.80;95317.53;10434174;28;2135;-86
2021/04/05 03:00:09;;;;;;;;;;;3.80;81.00;;;2.64;59.12;95296.28;10408275;28;2053;-85
2021/04/05 03:05:12;;;;;;;;;;;3.80;81.60;;;2.64;58.58;95291.00;10420930;28;2236;-85
2021/04/05 03:10:14;;;;;;;;;;;3.70;81.40;;;2.77;58.66;95273.97;10419762;28;2129;-87
2021/04/05 03:15:16;;;;;;;;;;;4.60;82.00;;;2.73;58.70;95267.53;10411333;28;2046;-86
2021/04/05 03:20:18;;;;;;;;;;;3.80;81.50;;;2.76;58.33;95256.44;10421645;28;2386;-84
2021/04/05 03:25:20;;;;;;;;;;;4.20;81.60;;;2.84;57.86;95239.34;10429093;28;2142;-86
2021/04/05 03:30:23;;;;;;;;;;;5.40;82.20;;;2.81;58.02;95231.84;10413430;28;2211;-86
2021/04/05 03:35:25;;;;;;;;;;;4.90;81.60;;;2.90;57.46;95228.56;10443977;28;2245;-85
2021/04/05 03:40:28;;;;;;;;;;;3.90;81.20;;;2.88;57.84;95219.25;10439994;28;2144;-86
2021/04/05 03:45:30;;;;;;;;;;;3.90;81.30;;;2.91;57.51;95205.47;10425772;28;2021;-85
2021/04/05 03:50:32;;;;;;;;;;;5.20;81.80;;;2.85;57.48;95196.63;10427768;28;2084;-85
2021/04/05 03:55:34;;;;;;;;;;;6.00;82.00;;;2.83;57.63;95192.59;10414713;28;2112;-84
2021/04/05 04:00:37;;;;;;;;;;;6.10;82.00;;;2.86;57.12;95179.66;10425106;28;2157;-86
2021/04/05 04:05:41;;;;;;;;;;;5.60;81.70;;;2.78;57.28;95174.72;10419093;28;1615;-85
2021/04/05 04:10:44;;;;;;;;;;;3.90;80.90;;;2.86;57.16;95168.22;10415594;28;2113;-84
2021/04/05 04:15:46;;;;;;;;;;;5.10;81.70;;;2.82;57.28;95167.09;10431233;28;2088;-85
2021/04/05 04:20:48;;;;;;;;;;;4.70;81.30;;;2.88;57.32;95168.81;10400646;28;2134;-85
2021/04/05 04:25:50;;;;;;;;;;;4.60;81.30;;;2.87;56.84;95157.38;10391276;28;2156;-84
2021/04/05 04:30:53;;;;;;;;;;;4.00;80.70;;;2.83;56.74;95145.63;10389387;28;2171;-84
2021/04/05 04:35:55;;;;;;;;;;;3.90;80.60;;;2.86;56.61;95139.84;10421138;28;2310;-84
2021/04/05 04:40:57;;;;;;;;;;;4.10;80.70;;;2.92;56.63;95122.94;10415468;28;2041;-86
2021/04/05 04:46:00;;;;;;;;;;;5.30;81.20;;;3.01;56.46;95118.03;10422024;28;2057;-86
2021/04/05 04:51:03;;;;;;;;;;;5.20;80.90;;;3.05;56.41;95105.06;10401592;28;1971;-85
2021/04/05 04:56:05;;;;;;;;;;;5.40;80.80;;;3.16;56.07;95096.22;10409944;28;2024;-85
2021/04/05 05:01:07;;;;;;;;;;;4.10;80.20;;;3.20;56.10;95095.50;10428245;28;2107;-85
2021/04/05 05:06:09;;;;;;;;;;;4.20;79.90;;;3.40;55.17;95096.81;10410285;28;2032;-85
2021/04/05 05:11:11;;;;;;;;;;;5.20;80.00;;;3.57;55.07;95091.47;10414143;28;1966;-85
2021/04/05 05:16:13;;;;;;;;;;;4.50;79.40;;;3.76;54.76;95101.56;10412015;28;2133;-86
2021/04/05 05:21:15;;;;;;;;;;;5.20;79.30;;;3.99;53.60;95097.03;10412455;28;1879;-85
2021/04/05 05:26:17;;;;;;;;;;;4.90;78.70;;;4.19;53.10;95099.13;10427722;28;1934;-85
2021/04/05 05:31:18;;;;;;;;;;;5.00;77.80;;;4.46;52.09;95093.81;10440120;28;1977;-83
2021/04/05 05:36:20;;;;;;;;;;;5.70;77.70;;;5.00;50.61;95088.41;10446040;28;2005;-83
2021/04/05 05:41:22;;;;;;;;;;;5.60;76.40;;;5.32;49.22;95078.50;10461935;28;2135;-84
2021/04/05 05:46:24;;;;;;;;;;;6.10;74.70;;;5.91;47.85;95066.84;10430359;28;2207;-84
2021/04/05 05:51:26;;;;;;;;;;;6.50;73.90;;;6.33;46.67;95057.88;10433827;28;2111;-85
2021/04/05 05:56:28;;;;;;;;;;;6.80;72.70;;;6.12;46.76;95054.38;10431470;28;2148;-82
2021/04/05 06:01:30;;;;;;;;;;;7.00;71.50;;;5.82;47.35;95041.69;10427891;28;2028;-86
2021/04/05 06:06:32;;;;;;;;;;;6.90;71.40;;;5.61;47.91;95043.50;10425452;28;1912;-85
2021/04/05 06:11:34;;;;;;;;;;;6.70;71.80;;;5.68;48.11;95041.38;10445813;28;2056;-85
2021/04/05 06:16:36;;;;;;;;;;;6.60;72.00;;;6.05;46.68;95046.63;10421871;28;2210;-85
2021/04/05 06:21:39;;;;;;;;;;;7.10;71.60;;;6.56;45.52;95032.56;10410641;28;2097;-85
2021/04/05 06:26:41;;;;;;;;;;;7.20;70.50;;;6.99;44.64;95032.00;10412011;28;1912;-85
2021/04/05 06:31:43;;;;;;;;;;;7.70;69.50;;;7.36;43.26;95006.81;10441225;28;2135;-84
2021/04/05 06:36:45;;;;;;;;;;;8.10;68.60;;;7.63;42.58;94997.63;10400341;28;2381;-85
2021/04/05 06:41:47;;;;;;;;;;;8.40;67.30;;;8.10;41.13;94986.44;10430737;28;2222;-85
2021/04/05 06:47:03;;;;;;;;;;;8.70;66.20;;;8.43;40.33;94976.88;10428967;28;2215;-85
2021/04/05 06:52:05;;;;;;;;;;;9.10;65.40;;;8.70;39.95;94965.69;10417677;28;2071;-81
2021/04/05 06:57:07;;;;;;;;;;;10.30;64.40;;;9.04;37.59;94956.81;10432318;28;2044;-81
2021/04/05 07:02:09;;;;;;;;;;;9.80;62.40;;;8.89;37.99;94960.44;10416047;28;2091;-84
2021/04/05 07:07:11;;;;;;;;;;;9.90;61.80;;;8.95;38.06;94945.91;10396908;28;2128;-84
2021/04/05 07:12:13;;;;;;;;;;;10.50;62.20;;;9.00;38.27;94956.56;10424991;28;1930;-83
2021/04/05 07:17:15;;;;;;;;;;;9.90;61.60;;;9.56;36.29;94949.81;10403547;28;2172;-83
2021/04/05 07:22:17;;;;;;;;;;;10.30;60.40;;;9.92;35.55;94920.59;10398976;28;1822;-83
2021/04/05 07:27:18;;;;;;;;;;;10.70;59.30;;;9.95;35.09;94917.34;10419219;28;2069;-81
2021/04/05 07:32:20;;;;;;;;;;;10.80;58.30;;;10.15;34.95;94900.94;10436287;28;1997;-81
2021/04/05 07:37:22;;;;;;;;;;;11.00;57.80;;;10.39;34.64;94898.19;10418935;28;1977;-82
2021/04/05 07:42:24;;;;;;;;;;;11.30;57.50;;;10.81;33.87;94889.16;10418498;28;1882;-81
2021/04/05 07:47:28;;;;;;;;;;;11.60;57.40;;;10.90;33.06;94885.78;10411763;28;2027;-82
2021/04/05 07:52:30;;;;;;;;;;;11.70;56.10;;;11.18;32.37;94871.25;10415252;28;2036;-83
2021/04/05 07:57:32;;;;;;;;;;;11.90;55.40;;;11.49;32.08;94849.09;10417265;28;1951;-80
2021/04/05 08:02:34;;;;;;;;;;;12.30;54.70;;;11.37;31.68;94847.72;10415786;28;1906;-82
2021/04/05 08:07:36;;;;;;;;;;;12.30;53.70;;;11.45;31.12;94848.94;10409825;28;2116;-81
2021/04/05 08:12:38;;;;;;;;;;;12.40;53.70;;;11.88;30.88;94857.41;10413069;28;1965;-82
2021/04/05 08:17:40;;;;;;;;;;;12.70;53.80;;;12.33;29.65;94835.09;10394469;28;2032;-81
2021/04/05 08:22:41;;;;;;;;;;;13.10;52.70;;;12.60;29.68;94832.28;10443792;28;2060;-81
2021/04/05 08:27:43;;;;;;;;;;;13.40;52.00;;;12.80;28.67;94825.53;10443811;28;1895;-81
2021/04/05 08:32:45;;;;;;;;;;;13.70;51.40;;;12.81;29.31;94819.03;10453187;28;1306;-80
2021/04/05 08:37:48;;;;;;;;;;;13.80;51.10;;;12.09;30.15;94833.53;10422836;28;2035;-81
2021/04/05 08:43:04;;;;;;;;;;;13.30;51.60;;;12.14;30.38;94824.50;10422743;28;2302;-80
2021/04/05 08:48:13;;;;;;;;;;;13.10;51.60;;;12.62;29.91;94807.69;10416989;28;2003;-82
2021/04/05 08:53:14;;;;;;;;;;;13.30;52.00;;;12.80;29.13;94817.47;10430879;28;2163;-80
2021/04/05 08:58:16;;;;;;;;;;;13.60;51.20;;;13.05;29.17;94807.09;10417042;28;1951;-79
2021/04/05 09:03:18;;;;;;;;;;;13.90;50.70;;;13.64;28.02;94786.75;10437503;28;2006;-82
2021/04/05 09:08:20;;;;;;;;;;;14.30;50.40;;;13.87;27.66;94784.72;10447483;28;2088;-81
2021/04/05 09:13:23;;;;;;;;;;;14.60;49.30;;;14.59;26.71;94772.38;10426701;28;2064;-81
2021/04/05 09:18:25;;;;;;;;;;;15.30;48.40;;;14.42;26.59;94762.34;10426707;28;2191;-80
2021/04/05 09:23:26;;;;;;;;;;;15.30;48.10;;;13.82;27.29;94782.16;10420867;28;2147;-82
2021/04/05 09:28:28;;;;;;;;;;;14.90;47.80;;;13.84;27.56;94769.13;10445340;28;2008;-81
2021/04/05 09:33:30;;;;;;;;;;;14.80;48.50;;;14.07;27.42;94735.41;10435802;28;1998;-82
2021/04/05 09:38:32;;;;;;;;;;;14.90;48.80;;;14.20;27.21;94744.44;10422877;28;2079;-82
2021/04/05 09:43:34;;;;;;;;;;;15.10;48.10;;;14.29;26.76;94722.81;10419849;28;2029;-80
2021/04/05 09:48:36;;;;;;;;;;;15.20;47.80;;;14.18;27.38;94733.16;10415854;28;2106;-82
2021/04/05 09:53:39;;;;;;;;;;;15.10;48.00;;;14.63;26.48;94718.41;10402679;28;1958;-83
2021/04/05 09:58:41;;;;;;;;;;;15.20;48.00;;;14.94;25.71;94691.84;10410255;28;1985;-81
2021/04/05 10:03:43;;;;;;;;;;;15.70;47.00;;;14.35;26.60;94718.81;10420812;28;2029;-83
2021/04/05 10:08:45;;;;;;;;;;;15.50;47.00;;;14.26;26.88;94705.31;10419248;28;2010;-81
2021/04/05 10:13:47;;;;;;;;;;;15.10;47.70;;;14.68;26.44;94696.59;10419474;28;1821;-80
2021/04/05 10:18:49;;;;;;;;;;;15.30;47.70;;;14.85;25.51;94677.59;10423023;28;1806;-82
2021/04/05 10:23:51;;;;;;;;;;;15.60;46.80;;;14.71;25.99;94666.22;10403269;28;1797;-81
2021/04/05 10:28:53;;;;;;;;;;;15.60;46.80;;;14.62;26.09;94651.91;10428762;28;1910;-82
2021/04/05 10:33:55;;;;;;;;;;;15.60;46.50;;;14.76;25.46;94638.94;10428862;28;1937;-83
2021/04/05 10:38:57;;;;;;;;;;;15.50;46.20;;;14.70;25.71;94648.41;10439953;28;1742;-82
2021/04/05 10:43:59;;;;;;;;;;;15.50;46.50;;;14.30;26.18;94635.97;10439798;28;1803;-83
2021/04/05 10:49:04;;;;;;;;;;;15.30;46.30;;;14.33;26.55;94635.34;10446929;28;2085;-82
2021/04/05 10:54:05;;;;;;;;;;;15.10;46.90;;;14.53;26.87;94620.31;10392356;28;2038;-83
2021/04/05 10:59:07;;;;;;;;;;;15.20;47.30;;;14.46;26.87;94617.34;10394965;28;2049;-83
2021/04/05 11:04:09;;;;;;;;;;;15.30;46.90;;;14.23;27.39;94618.66;10400553;28;2037;-80
2021/04/05 11:09:11;;;;;;;;;;;15.20;47.20;;;14.17;27.26;94609.94;10425622;28;2005;-82
2021/04/05 11:14:14;;;;;;;;;;;15.10;47.40;;;14.16;27.45;94597.56;10407200;28;2071;-81
2021/04/05 11:19:18;;;;;;;;;;;15.10;47.70;;;13.90;28.03;94578.75;10422925;28;2019;-81
2021/04/05 11:24:20;;;;;;;;;;;14.80;48.10;;;14.22;27.34;94574.63;10421847;28;2305;-82
2021/04/05 11:29:22;;;;;;;;;;;15.00;48.10;;;14.61;27.27;94570.00;10416370;28;2020;-83
2021/04/05 11:34:24;;;;;;;;;;;15.30;47.80;;;14.12;27.84;94555.28;10409115;28;1975;-80
2021/04/05 11:39:26;;;;;;;;;;;15.20;47.40;;;14.39;27.82;94537.84;10393467;28;2016;-83
2021/04/05 11:44:28;;;;;;;;;;;15.20;46.90;;;14.48;26.49;94520.44;10395166;28;1741;-83
2021/04/05 11:49:30;;;;;;;;;;;15.30;46.90;;;15.03;26.00;94511.28;10416230;28;1989;-83
2021/04/05 11:54:32;;;;;;;;;;;15.70;46.60;;;14.81;26.25;94492.69;10392989;28;2095;-82
2021/04/05 11:59:36;;;;;;;;;;;15.80;46.20;;;15.06;24.85;94494.38;10417621;28;2016;-82
2021/04/05 12:04:50;;;;;;;;;;;15.90;45.00;;;15.19;25.08;94497.91;10414825;28;1981;-81
2021/04/05 12:09:53;;;;;;;;;;;16.10;45.00;;;15.23;24.42;94481.81;10413273;28;1891;-83
2021/04/05 12:14:55;;;;;;;;;;;16.20;44.40;;;15.18;24.84;94471.19;10418820;28;1803;-81
2021/04/05 12:19:57;;;;;;;;;;;15.90;44.70;;;15.10;25.15;94468.22;10409479;28;1852;-81
2021/04/05 12:25:01;;;;;;;;;;;15.90;45.10;;;14.92;24.73;94461.41;10430991;28;2097;-80
2021/04/05 12:30:05;;;;;;;;;;;15.90;44.60;;;14.99;25.27;94460.84;10421177;28;1936;-84
2021/04/05 12:35:08;;;;;;;;;;;15.70;45.30;;;15.09;24.71;94455.84;10413767;28;2050;-82
2021/04/05 12:40:11;;;;;;;;;;;15.90;44.40;;;15.34;23.88;94455.91;10416769;28;1889;-82
2021/04/05 12:45:13;;;;;;;;;;;16.00;43.90;;;15.29;24.46;94421.69;10411749;28;2099;-81
2021/04/05 12:50:15;;;;;;;;;;;16.10;44.10;;;15.47;23.86;94392.50;10425042;28;1978;-82
2021/04/05 12:55:17;;;;;;;;;;;16.20;43.60;;;15.74;23.37;94407.31;10419633;28;1972;-82
2021/04/05 13:00:21;;;;;;;;;;;16.50;43.10;;;15.55;23.38;94407.84;10386001;28;2043;-81
2021/04/05 13:05:23;;;;;;;;;;;16.60;42.70;;;15.74;22.94;94409.25;10404262;28;1994;-83
2021/04/05 13:10:24;;;;;;;;;;;16.50;42.60;;;15.90;22.12;94416.34;10413658;28;1983;-80
2021/04/05 13:15:26;;;;;;;;;;;16.60;41.90;;;15.42;22.45;94422.50;10412838;28;1953;-81
2021/04/05 13:20:37;;;;;;;;;;;16.50;41.50;;;15.44;22.68;94400.50;10408714;28;1983;-80
2021/04/05 13:25:39;;;;;;;;;;;16.30;41.80;;;15.37;23.22;94412.69;10422261;28;2057;-80
2021/04/05 13:30:41;;;;;;;;;;;16.30;42.40;;;15.04;23.01;94399.22;10418034;28;1981;-79
2021/04/05 13:35:42;;;;;;;;;;;16.00;42.10;;;15.27;22.33;94413.13;10418106;28;1969;-80
2021/04/05 13:40:44;;;;;;;;;;;16.00;41.30;;;14.94;23.12;94415.84;10426891;28;1993;-82
2021/04/05 13:45:46;;;;;;;;;;;15.80;42.00;;;14.60;23.92;94412.34;10424292;28;2081;-81
2021/04/05 13:50:49;;;;;;;;;;;15.60;42.50;;;14.59;24.47;94410.78;10447561;28;1895;-81
2021/04/05 13:55:52;;;;;;;;;;;15.40;43.20;;;14.44;24.83;94419.47;10424413;28;1999;-81
2021/04/05 14:00:54;;;;;;;;;;;15.40;43.70;;;14.28;25.24;94423.88;10431004;28;1987;-81
2021/04/05 14:05:56;;;;;;;;;;;15.10;44.30;;;14.20;25.89;94425.53;10428991;28;1897;-81
2021/04/05 14:10:58;;;;;;;;;;;15.00;45.30;;;13.77;27.38;94417.69;10403198;28;1960;-79
2021/04/05 14:15:59;;;;;;;;;;;14.30;46.80;;;13.31;28.08;94388.88;10405209;28;1738;-81
2021/04/05 14:21:03;;;;;;;;;;;14.30;46.90;;;13.25;29.31;94413.34;10416912;28;1991;-83
2021/04/05 14:26:05;;;;;;;;;;;14.00;48.20;;;13.30;29.07;94404.28;10406874;28;1782;-80
2021/04/05 14:31:07;;;;;;;;;;;14.10;48.60;;;13.17;29.61;94397.16;10427532;28;2096;-80
2021/04/05 14:36:09;;;;;;;;;;;14.10;48.90;;;13.06;29.85;94402.09;10393936;28;2077;-80
2021/04/05 14:41:13;;;;;;;;;;;13.90;49.30;;;13.15;30.60;94383.97;10429863;28;2029;-80
2021/04/05 14:46:15;;;;;;;;;;;14.00;49.60;;;12.97;30.73;94379.75;10432543;28;1791;-81
2021/04/05 14:51:18;;;;;;;;;;;13.90;49.90;;;13.04;31.12;94390.03;10401477;28;1987;-79
2021/04/05 14:56:20;;;;;;;;;;;13.90;50.70;;;13.03;30.90;94364.16;10417509;28;2041;-81
2021/04/05 15:01:22;;;;;;;;;;;13.90;50.50;;;12.80;31.37;94364.41;10412739;28;1721;-80
2021/04/05 15:06:24;;;;;;;;;;;13.70;50.80;;;12.76;31.41;94373.47;10414991;28;1483;-81
2021/04/05 15:11:25;;;;;;;;;;;13.60;50.80;;;12.80;30.90;94369.81;10396885;28;1913;-81
2021/04/05 15:16:27;;;;;;;;;;;13.60;50.70;;;12.69;30.44;94357.78;10399401;28;1567;-81
2021/04/05 15:21:29;;;;;;;;;;;13.60;50.40;;;12.73;31.03;94369.50;10419053;28;1183;-80
2021/04/05 15:26:31;;;;;;;;;;;13.60;50.20;;;12.38;30.23;94363.38;10423826;28;1619;-82
2021/04/05 15:31:33;;;;;;;;;;;13.50;49.70;;;12.19;30.96;94361.00;10397611;28;1973;-82
2021/04/05 15:36:35;;;;;;;;;;;13.20;50.50;;;11.86;32.45;94348.03;10417415;28;1406;-81
2021/04/05 15:41:38;;;;;;;;;;;12.90;51.20;;;11.81;32.42;94367.00;10417002;28;1630;-80
2021/04/05 15:46:40;;;;;;;;;;;12.80;51.30;;;11.65;33.12;94368.56;10402980;28;1343;-80
2021/04/05 15:51:42;;;;;;;;;;;12.70;52.00;;;11.53;33.03;94368.38;10415574;28;2001;-82
2021/04/05 15:56:43;;;;;;;;;;;12.50;52.40;;;11.24;33.59;94388.53;10416865;28;1622;-82
2021/04/05 16:01:45;;;;;;;;;;;12.30;52.70;;;10.87;34.45;94386.31;10434258;28;1264;-81
2021/04/05 16:06:47;;;;;;;;;;;11.90;53.40;;;10.72;34.74;94385.63;10428952;28;1528;-83
2021/04/05 16:11:49;;;;;;;;;;;11.70;53.50;;;10.71;34.83;94394.00;10432646;28;1973;-82
2021/04/05 16:16:51;;;;;;;;;;;11.70;53.80;;;10.58;35.05;94401.03;10421425;28;1560;-82
2021/04/05 16:21:54;;;;;;;;;;;11.60;53.80;;;10.51;34.93;94406.84;10418834;28;1128;-80
2021/04/05 16:26:56;;;;;;;;;;;11.50;53.90;;;10.38;35.33;94385.41;10403445;28;1703;-82
2021/04/05 16:31:58;;;;;;;;;;;11.30;54.20;;;9.69;40.31;94441.94;10416289;28;2033;-81
2021/04/05 16:37:00;;;;;;;;;;;11.00;58.40;;;8.99;45.55;94464.47;10415815;28;2088;-81
2021/04/05 16:42:05;;;;;;;;;;;10.20;63.50;;;8.12;53.26;94463.13;10402153;28;2115;-81
2021/04/05 16:47:06;;;;;;;;;;;9.70;71.70;;;8.04;53.94;94439.69;10417472;28;2105;-82
2021/04/05 16:52:08;;;;;;;;;;;9.80;73.50;;;8.26;51.19;94446.34;10422053;28;2102;-83
2021/04/05 16:57:13;;;;;;;;;;;9.10;70.70;;;8.35;49.35;94433.91;10424028;28;2071;-83
2021/04/05 17:02:15;;;;;;;;;;;10.70;70.60;;;8.47;47.83;94434.28;10429302;28;1998;-83
2021/04/05 17:07:17;;;;;;;;;;;9.40;68.30;;;8.44;47.85;94450.91;10422053;28;2144;-82
2021/04/05 17:12:19;;;;;;;;;;;9.40;68.80;;;8.47;48.00;94452.22;10406852;28;2240;-81
2021/04/05 17:17:35;;;;;;;;;;;9.30;69.80;;;8.12;52.37;94494.47;10428340;28;2108;-82
2021/04/05 17:22:37;;;;;;;;;;;8.10;83.30;;;6.47;66.91;94527.72;10412467;28;2063;-82
2021/04/05 17:27:49;;;;;;;;;;;8.00;83.90;;;5.53;74.90;94532.16;10428520;28;2038;-82
2021/04/05 17:32:51;;;;;;;;;;;6.90;93.50;;;5.15;78.99;94569.03;10411864;28;2079;-82
2021/04/05 17:37:53;;;;;;;;;;;6.40;99.40;;;4.92;80.94;94588.25;10441343;28;2114;-85
2021/04/05 17:42:55;;;;;;;;;;;6.00;99.90;;;4.51;84.37;94585.53;10441646;28;2095;-81
2021/04/05 17:47:57;;;;;;;;;;;5.60;99.90;;;4.33;86.68;94600.97;10425056;28;2073;-82
2021/04/05 17:52:58;;;;;;;;;;;6.60;99.90;;;3.98;87.02;94622.13;10426793;28;2174;-82
2021/04/05 17:58:03;;;;;;;;;;;5.20;99.90;;;2.90;87.11;94680.94;10400118;28;2048;-81
2021/04/05 18:03:05;;;;;;;;;;;4.30;99.90;;;1.17;89.18;94715.91;10418313;28;1978;-81
2021/04/05 18:08:07;;;;;;;;;;;2.40;99.90;;;0.34;90.69;94733.22;10429666;28;1640;-80
2021/04/05 18:13:09;;;;;;;;;;;1.60;99.90;;;-0.16;91.63;94795.34;10415623;28;1918;-79
2021/04/05 18:18:10;;;;;;;;;;;2.60;99.90;;;-0.25;91.39;94772.97;10414630;28;1551;-80
2021/04/05 18:23:12;;;;;;;;;;;1.00;99.90;;;-0.31;93.14;94781.81;10419834;28;1801;-81
2021/04/05 18:28:14;;;;;;;;;;;0.60;99.90;;;-0.39;92.91;94808.53;10419744;28;1721;-80
2021/04/05 18:33:16;;;;;;;;;;;0.60;99.90;;;-0.39;93.49;94817.25;10405138;28;1887;-82
2021/04/05 18:38:18;;;;;;;;;;;2.10;99.90;;;-0.31;93.38;94821.41;10424346;28;1588;-82
2021/04/05 18:43:37;;;;;;;;;;;0.60;99.90;;;-0.21;94.27;94840.13;10413226;28;1257;-81
2021/04/05 18:48:39;;;;;;;;;;;2.20;99.90;;;-0.21;93.35;94852.53;10415326;28;1993;-80
2021/04/05 18:53:41;;;;;;;;;;;1.80;99.90;;;-0.26;93.68;94866.41;10399646;28;1544;-81
2021/04/05 18:58:43;;;;;;;;;;;0.70;99.90;;;-0.22;93.14;94880.78;10414809;28;1250;-80
2021/04/05 19:03:44;;;;;;;;;;;0.70;99.90;;;-0.20;93.76;94889.25;10413566;28;1591;-81
2021/04/05 19:08:47;;;;;;;;;;;0.90;99.90;;;-0.10;94.18;94901.91;10416564;28;1917;-79
2021/04/05 19:13:50;;;;;;;;;;;0.80;99.90;;;-0.15;94.01;94912.34;10411917;28;1725;-82
2021/04/05 19:18:51;;;;;;;;;;;2.00;99.90;;;-0.22;93.68;94933.59;10422258;28;1502;-81
2021/04/05 19:23:53;;;;;;;;;;;1.50;99.90;;;-0.29;93.62;94943.47;10423302;28;1248;-81
2021/04/05 19:28:56;;;;;;;;;;;0.70;99.90;;;-0.38;94.42;94956.19;10392800;28;1906;-82
2021/04/05 19:33:58;;;;;;;;;;;0.60;99.90;;;-0.56;93.52;94957.03;10412076;28;1410;-82
2021/04/05 19:38:59;;;;;;;;;;;0.70;99.90;;;-0.64;93.13;94972.38;10425311;28;1536;-80
2021/04/05 19:44:03;;;;;;;;;;;0.40;99.90;;;-0.61;93.83;94998.34;10415918;28;1576;-82
2021/04/05 19:49:05;;;;;;;;;;;0.30;99.90;;;-0.76;93.53;95006.66;10434758;28;1890;-80
2021/04/05 19:54:07;;;;;;;;;;;2.40;99.90;;;-0.82;93.86;95028.63;10434816;28;1457;-82
2021/04/05 19:59:10;;;;;;;;;;;0.10;99.90;;;-0.87;93.42;95024.00;10417878;28;1363;-80
2021/04/05 20:04:11;;;;;;;;;;;0.00;99.90;;;-0.83;93.61;95021.72;10403185;28;1908;-81
2021/04/05 20:09:13;;;;;;;;;;;0.10;99.90;;;-0.87;93.37;95034.56;10398378;28;1891;-82
2021/04/05 20:14:15;;;;;;;;;;;0.10;99.90;;;-0.87;93.03;95033.75;10394402;28;1363;-82
2021/04/05 20:19:17;;;;;;;;;;;0.70;99.90;;;-0.94;92.79;95057.59;10409017;28;1871;-81
2021/04/05 20:24:20;;;;;;;;;;;1.40;99.90;;;-1.09;92.95;95081.66;10407362;28;1351;-82
2021/04/05 20:29:23;;;;;;;;;;;0.00;99.90;;;-1.27;92.48;95110.66;10396777;28;1964;-83
2021/04/05 20:34:25;;;;;;;;;;;1.40;99.90;;;-2.10;91.14;95162.66;10420390;28;1394;-80
2021/04/05 20:39:29;;;;;;;;;;;-1.00;99.90;;;-2.47;91.56;95188.75;10430691;28;1658;-82
2021/04/05 20:44:32;;;;;;;;;;;-0.30;99.90;;;-2.59;90.26;95211.44;10411567;28;1911;-82
2021/04/05 20:49:33;;;;;;;;;;;0.10;99.90;;;-2.43;92.03;95228.59;10445005;28;2411;-81
2021/04/05 20:54:35;;;;;;;;;;;-1.70;99.90;;;-2.25;92.71;95228.75;10423136;28;2375;-82
2021/04/05 20:59:56;;;;;;;;;;;-1.10;99.90;;;-2.29;90.77;95249.44;10423962;28;2291;-82
2021/04/05 21:04:58;;;;;;;;;;;0.00;99.90;;;-1.93;91.59;95233.09;10424279;28;2398;-82
2021/04/05 21:10:00;;;;;;;;;;;-1.20;99.90;;;-1.92;89.90;95223.38;10425682;28;2490;-80
2021/04/05 21:15:05;;;;;;;;;;;-1.00;99.90;;;-1.94;89.16;95241.22;10421364;28;2710;-82
2021/04/05 21:20:07;;;;;;;;;;;-1.00;99.90;;;-1.83;90.30;95222.13;10422927;28;2403;-82
2021/04/05 21:25:12;;;;;;;;;;;0.20;99.90;;;-1.85;88.65;95224.13;10416737;28;2767;-82
2021/04/05 21:30:13;;;;;;;;;;;-0.90;99.90;;;-1.83;89.32;95201.06;10426418;28;2770;-82
2021/04/05 21:35:15;;;;;;;;;;;0.10;99.90;;;-1.85;88.45;95242.59;10418038;28;2423;-82
2021/04/05 21:40:17;;;;;;;;;;;-0.90;99.90;;;-1.79;89.28;95247.00;10413450;28;2428;-83
2021/04/05 21:45:19;;;;;;;;;;;-0.90;99.90;;;-1.56;89.17;95269.44;10424643;28;2822;-82
2021/04/05 21:50:21;;;;;;;;;;;-0.80;99.90;;;-1.51;88.85;95282.78;10432990;28;2358;-81
2021/04/05 21:55:22;;;;;;;;;;;0.80;99.90;;;-1.56;87.72;95301.88;10456205;28;2779;-81
2021/04/05 22:00:24;;;;;;;;;;;-0.60;99.90;;;-1.64;87.78;95294.19;10453620;28;2289;-80
2021/04/05 22:05:27;;;;;;;;;;;0.00;99.90;;;-1.64;87.67;95304.75;10451209;28;2340;-82
2021/04/05 22:10:39;;;;;;;;;;;-0.70;99.90;;;-1.50;87.84;95321.31;10444291;28;2013;-79
2021/04/05 22:15:41;;;;;;;;;;;0.70;99.90;;;-1.44;87.83;95304.66;10428846;28;2221;-80
2021/04/05 22:20:43;;;;;;;;;;;-0.50;99.90;;;-1.43;86.62;95290.44;10442004;28;2400;-80
2021/04/05 22:25:45;;;;;;;;;;;-0.50;99.90;;;-1.52;85.71;95302.25;10425273;28;2311;-81
2021/04/05 22:30:46;;;;;;;;;;;-0.50;99.90;;;-1.62;84.53;95315.88;10422391;28;2328;-81
2021/04/05 22:35:48;;;;;;;;;;;-0.60;99.90;;;-1.97;80.59;95313.56;10407249;28;2257;-81
2021/04/05 22:40:50;;;;;;;;;;;1.20;99.90;;;-1.80;82.06;95319.19;10405340;28;2267;-80
2021/04/05 22:45:52;;;;;;;;;;;0.00;99.90;;;-1.75;83.24;95313.28;10403880;28;2405;-81
2021/04/05 22:50:54;;;;;;;;;;;-0.80;99.90;;;-1.84;78.22;95309.28;10423254;28;2279;-82
2021/04/05 22:55:56;;;;;;;;;;;0.90;99.90;;;-1.95;79.48;95302.81;10424513;28;2311;-81
2021/04/05 23:00:57;;;;;;;;;;;-0.70;99.90;;;-1.93;79.73;95313.94;10401831;28;2298;-83
2021/04/05 23:05:59;;;;;;;;;;;-1.00;99.90;;;-1.91;79.96;95319.81;10425493;28;2435;-82
2021/04/05 23:11:04;;;;;;;;;;;-0.90;99.90;;;-1.91;79.52;95319.81;10394426;28;1966;-81
2021/04/05 23:16:05;;;;;;;;;;;-1.00;99.90;;;-1.76;81.16;95322.22;10427259;28;2568;-82
2021/04/05 23:21:11;;;;;;;;;;;-0.40;99.90;;;-1.83;81.81;95327.50;10425049;28;2189;-81
2021/04/05 23:26:13;;;;;;;;;;;1.30;99.90;;;-1.80;82.15;95329.72;10428212;28;2360;-83